This is the latest recevied weather packets stored in our database for station/object KE4BFX. If no packets are shown the sender has not sent any weather packets the latest 10 day(s).
| Time | Temp. | Humidity | Pressure | Rain* | Wind** | Luminosity | Snow |
|---|---|---|---|---|---|---|---|
| 1777707622 | 12.78° C | 91% | 1021.5 hPa | 3.81 mm | - | 0 W/m² | - |
| 1777706422 | 12.78° C | 91% | 1021.5 hPa | 3.05 mm | - | 0 W/m² | - |
| 1777704622 | 12.78° C | 91% | 1021.5 hPa | 2.29 mm | - | 0 W/m² | - |
| 1777701023 | 12.78° C | 90% | 1021.5 hPa | 23.11 mm | - | 0 W/m² | - |
| 1777696822 | 13.33° C | 90% | 1021.5 hPa | 0.25 mm | - | 0 W/m² | - |
| 1777692622 | 12.78° C | 90% | 1021.5 hPa | 3.3 mm | - | 0 W/m² | - |
| 1777678823 | 15.56° C | 88% | 1021.5 hPa | 4.06 mm | - | 0 W/m² | - |
| 1777653623 | 18.89° C | 87% | 1021.5 hPa | 0 mm | - | 100 W/m² | - |
| 1777640424 | 18.89° C | 88% | 1021.5 hPa | 0 mm | - | 60 W/m² | - |
| 1777639224 | 18.89° C | 87% | 1021.5 hPa | 0 mm | - | 51 W/m² | - |
| 1777633223 | 18.89° C | 88% | 1021.5 hPa | 0 mm | - | 0 W/m² | - |
| 1777627824 | 18.89° C | 87% | 1021.5 hPa | 0 mm | - | 0 W/m² | - |
| 1777626624 | 19.44° C | 87% | 1021.5 hPa | 0 mm | - | 0 W/m² | - |
| 1777625424 | 19.44° C | 88% | 1021.5 hPa | 0 mm | - | 0 W/m² | - |
| 1777622424 | 19.44° C | 87% | 1021.5 hPa | 0 mm | - | 0 W/m² | - |
| 1777621824 | 19.44° C | 87% | 1021.5 hPa | 0 mm | - | 0 W/m² | - |
| 1777619424 | 20° C | 87% | 1021.5 hPa | 0 mm | - | 0 W/m² | - |
| 1777618224 | 20° C | 87% | 1021.5 hPa | 0 mm | - | 0 W/m² | - |
| 1777617625 | 20° C | 87% | 1021.5 hPa | 0 mm | - | 0 W/m² | - |
| 1777610984 | 21.11° C | 87% | 1021.5 hPa | 0 mm | - | 0 W/m² | - |
| 1777605584 | 21.67° C | 85% | 1021.5 hPa | 0 mm | - | 0 W/m² | - |
| 1777598985 | 22.78° C | 82% | 1021.5 hPa | 0 mm | - | 0 W/m² | - |
| 1777596585 | 23.89° C | 80% | 1021.5 hPa | 0 mm | - | 0 W/m² | - |
| 1777595985 | 23.89° C | 79% | 1021.5 hPa | 0 mm | - | 0 W/m² | - |
| 1777593585 | 24.44° C | 77% | 1021.5 hPa | 0 mm | - | 21 W/m² | - |
* Rain latest hour (hover to see other rain measurements)
** Current wind speed in m/s (hover to see current wind gust speed)